Terminal Aerodrome Forecast
Issued by NWS Corpus Christi, TX

Home | Current Version | Previous Version | Text Only | Print | Product List | Glossary On
Versions: 1 2 3 4 5 6 7 8 9 10 11 12 13 14 15 16 17 18 19 20 21 22 23
000
FTUS44 KCRP 201942 AAB
TAFVCT
TAF AMD
KVCT 201942Z 2020/2118 16006KT 6SM BR VCSH SCT009 BKN015
      TEMPO 2020/2023 VRB12G25KT 2SM TSRA BR OVC015CB
     FM202300 13006KT 6SM BR OVC012
     FM210300 14003KT 3SM BR OVC003
     FM210800 VRB03KT 1/2SM FG VV002
     FM211100 VRB03KT 1/4SM FG VV001
      TEMPO 2113/2116 3/4SM BR OVC004
     FM211600 24006KT 1SM BR OVC015=

USA.gov is the U.S. government's official web portal to all federal, state and local government web resources and services.